sensor_id;sensor_type;location;lat;lon;timestamp;P1;durP1;ratioP1;P2;durP2;ratioP2
36797;SDS011;22748;8.426;99.512;2022-11-25T00:02:22;12.52;;;9.55;;
36797;SDS011;22748;8.426;99.512;2022-11-25T00:04:54;14.40;;;9.63;;
36797;SDS011;22748;8.426;99.512;2022-11-25T00:07:25;10.50;;;8.65;;
36797;SDS011;22748;8.426;99.512;2022-11-25T00:09:54;11.93;;;8.68;;
36797;SDS011;22748;8.426;99.512;2022-11-25T00:12:26;18.30;;;9.02;;
36797;SDS011;22748;8.426;99.512;2022-11-25T00:14:56;11.25;;;8.90;;
36797;SDS011;22748;8.426;99.512;2022-11-25T00:17:29;14.82;;;8.73;;
36797;SDS011;22748;8.426;99.512;2022-11-25T00:20:00;9.63;;;7.82;;
36797;SDS011;22748;8.426;99.512;2022-11-25T00:25:02;9.18;;;8.05;;
36797;SDS011;22748;8.426;99.512;2022-11-25T00:27:33;9.80;;;7.88;;
36797;SDS011;22748;8.426;99.512;2022-11-25T00:30:04;9.27;;;6.72;;
36797;SDS011;22748;8.426;99.512;2022-11-25T00:32:39;8.30;;;6.80;;
36797;SDS011;22748;8.426;99.512;2022-11-25T00:35:08;14.60;;;12.52;;
36797;SDS011;22748;8.426;99.512;2022-11-25T00:37:39;14.30;;;9.30;;
36797;SDS011;22748;8.426;99.512;2022-11-25T00:40:11;12.23;;;7.57;;
36797;SDS011;22748;8.426;99.512;2022-11-25T00:42:43;6.78;;;5.88;;
36797;SDS011;22748;8.426;99.512;2022-11-25T00:45:27;7.68;;;6.75;;
36797;SDS011;22748;8.426;99.512;2022-11-25T00:48:00;11.45;;;8.38;;
36797;SDS011;22748;8.426;99.512;2022-11-25T00:50:29;8.93;;;6.40;;
36797;SDS011;22748;8.426;99.512;2022-11-25T00:53:00;7.20;;;5.82;;
36797;SDS011;22748;8.426;99.512;2022-11-25T00:55:32;6.25;;;5.68;;
36797;SDS011;22748;8.426;99.512;2022-11-25T00:58:14;7.97;;;6.63;;
36797;SDS011;22748;8.426;99.512;2022-11-25T01:00:44;7.05;;;6.30;;
36797;SDS011;22748;8.426;99.512;2022-11-25T01:03:18;7.38;;;6.60;;
36797;SDS011;22748;8.426;99.512;2022-11-25T01:05:49;7.90;;;6.55;;
36797;SDS011;22748;8.426;99.512;2022-11-25T01:08:19;6.20;;;5.80;;
36797;SDS011;22748;8.426;99.512;2022-11-25T01:10:56;8.87;;;6.60;;
36797;SDS011;22748;8.426;99.512;2022-11-25T01:13:26;6.20;;;5.78;;
36797;SDS011;22748;8.426;99.512;2022-11-25T01:15:59;6.32;;;5.72;;
36797;SDS011;22748;8.426;99.512;2022-11-25T01:18:33;6.40;;;5.00;;
36797;SDS011;22748;8.426;99.512;2022-11-25T01:21:06;6.85;;;5.70;;
36797;SDS011;22748;8.426;99.512;2022-11-25T01:23:38;7.82;;;5.90;;
36797;SDS011;22748;8.426;99.512;2022-11-25T01:26:11;9.88;;;6.90;;
36797;SDS011;22748;8.426;99.512;2022-11-25T01:28:42;9.23;;;6.35;;
36797;SDS011;22748;8.426;99.512;2022-11-25T01:31:15;13.13;;;8.23;;
36797;SDS011;22748;8.426;99.512;2022-11-25T01:33:50;9.50;;;8.18;;
36797;SDS011;22748;8.426;99.512;2022-11-25T01:36:24;7.82;;;7.03;;
36797;SDS011;22748;8.426;99.512;2022-11-25T01:38:55;8.48;;;7.57;;
36797;SDS011;22748;8.426;99.512;2022-11-25T01:41:28;9.52;;;7.28;;
36797;SDS011;22748;8.426;99.512;2022-11-25T01:44:07;9.05;;;7.43;;
36797;SDS011;22748;8.426;99.512;2022-11-25T01:46:43;9.15;;;6.88;;
36797;SDS011;22748;8.426;99.512;2022-11-25T01:49:20;7.15;;;6.55;;
36797;SDS011;22748;8.426;99.512;2022-11-25T01:51:57;7.70;;;6.30;;
36797;SDS011;22748;8.426;99.512;2022-11-25T01:54:32;7.40;;;5.00;;
36797;SDS011;22748;8.426;99.512;2022-11-25T01:57:09;5.65;;;5.15;;
36797;SDS011;22748;8.426;99.512;2022-11-25T01:59:47;6.32;;;5.72;;
36797;SDS011;22748;8.426;99.512;2022-11-25T02:02:19;6.35;;;5.57;;
36797;SDS011;22748;8.426;99.512;2022-11-25T02:04:51;19.60;;;5.35;;
36797;SDS011;22748;8.426;99.512;2022-11-25T02:07:23;6.25;;;4.78;;
36797;SDS011;22748;8.426;99.512;2022-11-25T02:09:59;7.18;;;4.45;;
36797;SDS011;22748;8.426;99.512;2022-11-25T02:12:32;6.03;;;5.35;;
36797;SDS011;22748;8.426;99.512;2022-11-25T02:15:04;11.35;;;4.07;;
36797;SDS011;22748;8.426;99.512;2022-11-25T02:17:36;11.33;;;5.23;;
36797;SDS011;22748;8.426;99.512;2022-11-25T02:20:09;7.82;;;4.40;;
36797;SDS011;22748;8.426;99.512;2022-11-25T02:22:45;8.23;;;5.00;;
36797;SDS011;22748;8.426;99.512;2022-11-25T02:25:25;8.68;;;5.65;;
36797;SDS011;22748;8.426;99.512;2022-11-25T02:27:59;7.18;;;4.28;;
36797;SDS011;22748;8.426;99.512;2022-11-25T02:30:33;7.72;;;4.72;;
36797;SDS011;22748;8.426;99.512;2022-11-25T02:33:04;8.43;;;4.25;;
36797;SDS011;22748;8.426;99.512;2022-11-25T02:35:35;11.00;;;4.80;;
36797;SDS011;22748;8.426;99.512;2022-11-25T02:38:08;8.20;;;4.20;;
36797;SDS011;22748;8.426;99.512;2022-11-25T02:40:45;8.15;;;5.20;;
36797;SDS011;22748;8.426;99.512;2022-11-25T02:43:18;5.57;;;4.43;;
36797;SDS011;22748;8.426;99.512;2022-11-25T02:45:50;7.07;;;4.75;;
36797;SDS011;22748;8.426;99.512;2022-11-25T02:48:28;13.90;;;4.72;;
36797;SDS011;22748;8.426;99.512;2022-11-25T02:50:59;7.93;;;3.75;;
36797;SDS011;22748;8.426;99.512;2022-11-25T02:53:32;24.25;;;5.45;;
36797;SDS011;22748;8.426;99.512;2022-11-25T02:56:04;11.57;;;4.13;;
36797;SDS011;22748;8.426;99.512;2022-11-25T02:58:34;11.45;;;3.85;;
36797;SDS011;22748;8.426;99.512;2022-11-25T03:01:04;6.68;;;3.50;;
36797;SDS011;22748;8.426;99.512;2022-11-25T03:03:35;11.88;;;4.35;;
36797;SDS011;22748;8.426;99.512;2022-11-25T03:06:05;5.88;;;3.42;;
36797;SDS011;22748;8.426;99.512;2022-11-25T03:08:37;8.23;;;4.05;;
36797;SDS011;22748;8.426;99.512;2022-11-25T03:11:10;5.13;;;3.40;;
36797;SDS011;22748;8.426;99.512;2022-11-25T03:13:41;7.20;;;3.30;;
36797;SDS011;22748;8.426;99.512;2022-11-25T03:16:10;11.80;;;4.90;;
36797;SDS011;22748;8.426;99.512;2022-11-25T03:18:41;7.18;;;3.60;;
36797;SDS011;22748;8.426;99.512;2022-11-25T03:21:12;8.52;;;3.50;;
36797;SDS011;22748;8.426;99.512;2022-11-25T03:23:42;5.25;;;3.20;;
36797;SDS011;22748;8.426;99.512;2022-11-25T03:26:15;18.45;;;7.07;;
36797;SDS011;22748;8.426;99.512;2022-11-25T03:28:46;10.88;;;5.18;;
36797;SDS011;22748;8.426;99.512;2022-11-25T03:31:16;10.68;;;4.00;;
36797;SDS011;22748;8.426;99.512;2022-11-25T03:33:46;9.25;;;3.60;;
36797;SDS011;22748;8.426;99.512;2022-11-25T03:36:16;39.75;;;6.72;;
36797;SDS011;22748;8.426;99.512;2022-11-25T03:38:47;22.88;;;5.72;;
36797;SDS011;22748;8.426;99.512;2022-11-25T03:41:19;9.65;;;3.95;;
36797;SDS011;22748;8.426;99.512;2022-11-25T03:43:50;4.53;;;3.60;;
36797;SDS011;22748;8.426;99.512;2022-11-25T03:46:19;8.18;;;4.35;;
36797;SDS011;22748;8.426;99.512;2022-11-25T03:48:52;7.32;;;4.18;;
36797;SDS011;22748;8.426;99.512;2022-11-25T03:51:21;8.35;;;5.70;;
36797;SDS011;22748;8.426;99.512;2022-11-25T03:53:52;17.67;;;8.40;;
36797;SDS011;22748;8.426;99.512;2022-11-25T03:56:23;7.13;;;5.00;;
36797;SDS011;22748;8.426;99.512;2022-11-25T03:58:52;5.50;;;4.50;;
36797;SDS011;22748;8.426;99.512;2022-11-25T04:01:21;6.43;;;4.68;;
36797;SDS011;22748;8.426;99.512;2022-11-25T04:03:52;6.43;;;4.22;;
36797;SDS011;22748;8.426;99.512;2022-11-25T04:06:22;5.07;;;4.20;;
36797;SDS011;22748;8.426;99.512;2022-11-25T04:08:52;38.13;;;6.80;;
36797;SDS011;22748;8.426;99.512;2022-11-25T04:11:26;8.52;;;4.13;;
36797;SDS011;22748;8.426;99.512;2022-11-25T04:14:12;8.63;;;4.20;;
36797;SDS011;22748;8.426;99.512;2022-11-25T04:16:42;7.80;;;4.18;;
36797;SDS011;22748;8.426;99.512;2022-11-25T04:19:13;5.77;;;4.13;;
36797;SDS011;22748;8.426;99.512;2022-11-25T04:21:43;10.23;;;4.53;;
36797;SDS011;22748;8.426;99.512;2022-11-25T04:24:14;5.35;;;3.60;;
36797;SDS011;22748;8.426;99.512;2022-11-25T04:26:47;4.95;;;3.95;;
36797;SDS011;22748;8.426;99.512;2022-11-25T04:29:19;4.65;;;4.25;;
36797;SDS011;22748;8.426;99.512;2022-11-25T04:31:49;8.63;;;3.92;;
36797;SDS011;22748;8.426;99.512;2022-11-25T04:34:19;7.90;;;4.50;;
36797;SDS011;22748;8.426;99.512;2022-11-25T04:36:52;7.57;;;4.28;;
36797;SDS011;22748;8.426;99.512;2022-11-25T04:39:24;9.32;;;4.15;;
36797;SDS011;22748;8.426;99.512;2022-11-25T04:41:54;6.90;;;5.07;;
36797;SDS011;22748;8.426;99.512;2022-11-25T04:44:37;7.50;;;4.65;;
36797;SDS011;22748;8.426;99.512;2022-11-25T04:47:08;17.02;;;5.82;;
36797;SDS011;22748;8.426;99.512;2022-11-25T04:52:08;9.52;;;5.20;;
36797;SDS011;22748;8.426;99.512;2022-11-25T04:54:37;7.70;;;5.18;;
36797;SDS011;22748;8.426;99.512;2022-11-25T04:57:08;7.72;;;4.40;;
36797;SDS011;22748;8.426;99.512;2022-11-25T04:59:41;8.80;;;4.93;;
36797;SDS011;22748;8.426;99.512;2022-11-25T05:02:13;8.95;;;4.72;;
36797;SDS011;22748;8.426;99.512;2022-11-25T05:04:44;4.68;;;4.18;;
36797;SDS011;22748;8.426;99.512;2022-11-25T05:09:46;5.80;;;4.57;;
36797;SDS011;22748;8.426;99.512;2022-11-25T05:12:18;24.77;;;7.00;;
36797;SDS011;22748;8.426;99.512;2022-11-25T05:14:48;8.05;;;4.90;;
36797;SDS011;22748;8.426;99.512;2022-11-25T05:17:18;9.68;;;4.70;;
36797;SDS011;22748;8.426;99.512;2022-11-25T05:19:49;9.82;;;5.78;;
36797;SDS011;22748;8.426;99.512;2022-11-25T05:22:20;6.88;;;4.75;;
36797;SDS011;22748;8.426;99.512;2022-11-25T05:24:56;6.82;;;5.30;;
36797;SDS011;22748;8.426;99.512;2022-11-25T05:27:28;5.32;;;4.82;;
36797;SDS011;22748;8.426;99.512;2022-11-25T05:30:00;9.40;;;5.70;;
36797;SDS011;22748;8.426;99.512;2022-11-25T05:32:31;7.03;;;4.97;;
36797;SDS011;22748;8.426;99.512;2022-11-25T05:35:00;9.52;;;5.97;;
36797;SDS011;22748;8.426;99.512;2022-11-25T05:37:31;9.38;;;5.45;;
36797;SDS011;22748;8.426;99.512;2022-11-25T05:40:01;9.07;;;5.28;;
36797;SDS011;22748;8.426;99.512;2022-11-25T05:42:34;6.47;;;4.43;;
36797;SDS011;22748;8.426;99.512;2022-11-25T05:45:09;6.78;;;4.97;;
36797;SDS011;22748;8.426;99.512;2022-11-25T05:47:39;5.10;;;4.60;;
36797;SDS011;22748;8.426;99.512;2022-11-25T05:50:11;5.47;;;4.38;;
36797;SDS011;22748;8.426;99.512;2022-11-25T05:55:11;7.00;;;4.95;;
36797;SDS011;22748;8.426;99.512;2022-11-25T05:57:45;9.45;;;4.50;;
36797;SDS011;22748;8.426;99.512;2022-11-25T06:00:16;5.35;;;4.18;;
36797;SDS011;22748;8.426;99.512;2022-11-25T06:02:48;10.02;;;4.57;;
36797;SDS011;22748;8.426;99.512;2022-11-25T06:05:18;10.60;;;4.65;;
36797;SDS011;22748;8.426;99.512;2022-11-25T06:07:49;8.07;;;4.10;;
36797;SDS011;22748;8.426;99.512;2022-11-25T06:10:21;4.70;;;4.13;;
36797;SDS011;22748;8.426;99.512;2022-11-25T06:12:55;6.50;;;4.13;;
36797;SDS011;22748;8.426;99.512;2022-11-25T06:15:27;8.95;;;4.25;;
36797;SDS011;22748;8.426;99.512;2022-11-25T06:17:56;19.55;;;4.60;;
36797;SDS011;22748;8.426;99.512;2022-11-25T06:20:26;5.63;;;4.10;;
36797;SDS011;22748;8.426;99.512;2022-11-25T06:22:56;8.45;;;4.85;;
36797;SDS011;22748;8.426;99.512;2022-11-25T06:25:29;12.02;;;10.90;;
36797;SDS011;22748;8.426;99.512;2022-11-25T06:28:02;6.70;;;5.03;;
36797;SDS011;22748;8.426;99.512;2022-11-25T06:30:33;8.23;;;4.00;;
36797;SDS011;22748;8.426;99.512;2022-11-25T06:33:04;7.05;;;5.35;;
36797;SDS011;22748;8.426;99.512;2022-11-25T06:35:35;8.18;;;4.20;;
36797;SDS011;22748;8.426;99.512;2022-11-25T06:38:04;7.63;;;4.70;;
36797;SDS011;22748;8.426;99.512;2022-11-25T06:40:35;7.95;;;4.50;;
36797;SDS011;22748;8.426;99.512;2022-11-25T06:43:09;4.38;;;3.97;;
36797;SDS011;22748;8.426;99.512;2022-11-25T06:45:39;3.63;;;3.25;;
36797;SDS011;22748;8.426;99.512;2022-11-25T06:48:09;4.63;;;3.88;;
36797;SDS011;22748;8.426;99.512;2022-11-25T06:50:42;4.40;;;3.55;;
36797;SDS011;22748;8.426;99.512;2022-11-25T06:53:11;10.93;;;4.10;;
36797;SDS011;22748;8.426;99.512;2022-11-25T06:55:41;4.18;;;3.10;;
36797;SDS011;22748;8.426;99.512;2022-11-25T06:58:18;11.00;;;4.13;;
36797;SDS011;22748;8.426;99.512;2022-11-25T07:00:49;12.10;;;8.55;;
36797;SDS011;22748;8.426;99.512;2022-11-25T07:03:20;7.20;;;3.90;;
36797;SDS011;22748;8.426;99.512;2022-11-25T07:05:50;4.97;;;3.40;;
36797;SDS011;22748;8.426;99.512;2022-11-25T07:08:22;6.40;;;5.07;;
36797;SDS011;22748;8.426;99.512;2022-11-25T07:10:53;7.10;;;6.40;;
36797;SDS011;22748;8.426;99.512;2022-11-25T07:13:24;8.52;;;5.75;;
36797;SDS011;22748;8.426;99.512;2022-11-25T07:15:56;6.35;;;3.90;;
36797;SDS011;22748;8.426;99.512;2022-11-25T07:18:31;3.88;;;3.50;;
36797;SDS011;22748;8.426;99.512;2022-11-25T07:21:04;8.50;;;4.30;;
36797;SDS011;22748;8.426;99.512;2022-11-25T07:23:37;7.80;;;4.18;;
36797;SDS011;22748;8.426;99.512;2022-11-25T07:26:10;5.70;;;4.28;;
36797;SDS011;22748;8.426;99.512;2022-11-25T07:28:44;5.05;;;3.40;;
36797;SDS011;22748;8.426;99.512;2022-11-25T07:31:15;6.18;;;3.85;;
36797;SDS011;22748;8.426;99.512;2022-11-25T07:33:49;6.00;;;3.90;;
36797;SDS011;22748;8.426;99.512;2022-11-25T07:36:20;11.48;;;4.22;;
36797;SDS011;22748;8.426;99.512;2022-11-25T07:38:50;4.05;;;2.95;;
36797;SDS011;22748;8.426;99.512;2022-11-25T07:41:20;3.83;;;2.88;;
36797;SDS011;22748;8.426;99.512;2022-11-25T07:43:54;2.85;;;2.65;;
36797;SDS011;22748;8.426;99.512;2022-11-25T07:46:26;4.65;;;3.10;;
36797;SDS011;22748;8.426;99.512;2022-11-25T07:48:57;2.70;;;2.50;;
36797;SDS011;22748;8.426;99.512;2022-11-25T07:51:29;4.47;;;2.97;;
36797;SDS011;22748;8.426;99.512;2022-11-25T07:54:02;3.40;;;2.97;;
36797;SDS011;22748;8.426;99.512;2022-11-25T07:56:34;5.07;;;2.83;;
36797;SDS011;22748;8.426;99.512;2022-11-25T07:59:09;4.53;;;3.65;;
36797;SDS011;22748;8.426;99.512;2022-11-25T08:01:41;3.75;;;3.05;;
36797;SDS011;22748;8.426;99.512;2022-11-25T08:04:11;3.92;;;2.88;;
36797;SDS011;22748;8.426;99.512;2022-11-25T08:06:42;5.67;;;3.97;;
36797;SDS011;22748;8.426;99.512;2022-11-25T08:09:15;6.38;;;3.20;;
36797;SDS011;22748;8.426;99.512;2022-11-25T08:11:46;4.55;;;3.13;;
36797;SDS011;22748;8.426;99.512;2022-11-25T08:14:19;3.65;;;2.75;;
36797;SDS011;22748;8.426;99.512;2022-11-25T08:16:50;6.88;;;2.97;;
36797;SDS011;22748;8.426;99.512;2022-11-25T08:19:23;5.95;;;3.30;;
36797;SDS011;22748;8.426;99.512;2022-11-25T08:21:54;5.72;;;2.80;;
36797;SDS011;22748;8.426;99.512;2022-11-25T08:24:27;3.80;;;2.90;;
36797;SDS011;22748;8.426;99.512;2022-11-25T08:26:57;8.68;;;3.97;;
36797;SDS011;22748;8.426;99.512;2022-11-25T08:29:29;10.90;;;4.20;;
36797;SDS011;22748;8.426;99.512;2022-11-25T08:31:58;4.45;;;3.70;;
36797;SDS011;22748;8.426;99.512;2022-11-25T08:34:29;4.75;;;2.90;;
36797;SDS011;22748;8.426;99.512;2022-11-25T08:37:00;6.65;;;3.50;;
36797;SDS011;22748;8.426;99.512;2022-11-25T08:39:31;4.45;;;2.65;;
36797;SDS011;22748;8.426;99.512;2022-11-25T08:42:04;4.63;;;2.47;;
36797;SDS011;22748;8.426;99.512;2022-11-25T08:44:37;5.10;;;2.72;;
36797;SDS011;22748;8.426;99.512;2022-11-25T08:47:09;4.55;;;3.10;;
36797;SDS011;22748;8.426;99.512;2022-11-25T08:52:13;4.07;;;3.15;;
36797;SDS011;22748;8.426;99.512;2022-11-25T08:54:51;3.72;;;3.30;;
36797;SDS011;22748;8.426;99.512;2022-11-25T08:57:24;4.43;;;3.05;;
36797;SDS011;22748;8.426;99.512;2022-11-25T09:00:02;4.60;;;3.30;;
36797;SDS011;22748;8.426;99.512;2022-11-25T09:02:33;4.13;;;3.35;;
36797;SDS011;22748;8.426;99.512;2022-11-25T09:05:04;4.22;;;3.42;;
36797;SDS011;22748;8.426;99.512;2022-11-25T09:07:34;3.50;;;3.20;;
36797;SDS011;22748;8.426;99.512;2022-11-25T09:10:07;4.20;;;3.20;;
36797;SDS011;22748;8.426;99.512;2022-11-25T09:12:45;4.40;;;3.28;;
36797;SDS011;22748;8.426;99.512;2022-11-25T09:15:18;4.82;;;3.38;;
36797;SDS011;22748;8.426;99.512;2022-11-25T09:17:47;6.32;;;4.30;;
36797;SDS011;22748;8.426;99.512;2022-11-25T09:20:25;15.50;;;5.30;;
36797;SDS011;22748;8.426;99.512;2022-11-25T09:22:56;11.35;;;5.03;;
36797;SDS011;22748;8.426;99.512;2022-11-25T09:25:29;7.63;;;5.80;;
36797;SDS011;22748;8.426;99.512;2022-11-25T09:27:58;7.30;;;5.40;;
36797;SDS011;22748;8.426;99.512;2022-11-25T09:30:30;7.38;;;5.05;;
36797;SDS011;22748;8.426;99.512;2022-11-25T09:33:01;8.45;;;4.82;;
36797;SDS011;22748;8.426;99.512;2022-11-25T09:35:31;9.70;;;5.22;;
36797;SDS011;22748;8.426;99.512;2022-11-25T09:38:00;15.27;;;5.90;;
36797;SDS011;22748;8.426;99.512;2022-11-25T09:40:32;8.55;;;5.10;;
36797;SDS011;22748;8.426;99.512;2022-11-25T09:43:08;11.45;;;6.40;;
36797;SDS011;22748;8.426;99.512;2022-11-25T09:46:08;13.85;;;6.75;;
36797;SDS011;22748;8.426;99.512;2022-11-25T09:49:02;12.05;;;5.07;;
36797;SDS011;22748;8.426;99.512;2022-11-25T09:51:45;9.68;;;6.00;;
36797;SDS011;22748;8.426;99.512;2022-11-25T09:54:26;5.90;;;4.82;;
36797;SDS011;22748;8.426;99.512;2022-11-25T09:57:03;6.57;;;3.85;;
36797;SDS011;22748;8.426;99.512;2022-11-25T09:59:55;7.17;;;4.30;;
36797;SDS011;22748;8.426;99.512;2022-11-25T10:02:38;8.68;;;4.35;;
36797;SDS011;22748;8.426;99.512;2022-11-25T10:05:14;9.07;;;4.63;;
36797;SDS011;22748;8.426;99.512;2022-11-25T10:07:50;12.32;;;6.85;;
36797;SDS011;22748;8.426;99.512;2022-11-25T10:10:25;6.97;;;5.15;;
36797;SDS011;22748;8.426;99.512;2022-11-25T10:12:58;8.23;;;3.78;;
36797;SDS011;22748;8.426;99.512;2022-11-25T10:15:28;4.13;;;2.83;;
36797;SDS011;22748;8.426;99.512;2022-11-25T10:18:05;8.57;;;3.28;;
36797;SDS011;22748;8.426;99.512;2022-11-25T10:20:43;5.60;;;3.70;;
36797;SDS011;22748;8.426;99.512;2022-11-25T10:23:18;6.95;;;2.92;;
36797;SDS011;22748;8.426;99.512;2022-11-25T10:25:54;5.80;;;3.28;;
36797;SDS011;22748;8.426;99.512;2022-11-25T10:28:31;4.00;;;2.90;;
36797;SDS011;22748;8.426;99.512;2022-11-25T10:31:03;5.95;;;3.10;;
36797;SDS011;22748;8.426;99.512;2022-11-25T10:33:43;12.00;;;4.55;;
36797;SDS011;22748;8.426;99.512;2022-11-25T10:36:16;6.57;;;3.45;;
36797;SDS011;22748;8.426;99.512;2022-11-25T10:38:51;9.13;;;4.07;;
36797;SDS011;22748;8.426;99.512;2022-11-25T10:41:25;5.32;;;3.38;;
36797;SDS011;22748;8.426;99.512;2022-11-25T10:43:57;8.07;;;3.03;;
36797;SDS011;22748;8.426;99.512;2022-11-25T10:46:30;6.90;;;3.08;;
36797;SDS011;22748;8.426;99.512;2022-11-25T10:49:12;10.87;;;3.60;;
36797;SDS011;22748;8.426;99.512;2022-11-25T10:51:49;11.75;;;4.30;;
36797;SDS011;22748;8.426;99.512;2022-11-25T10:54:23;9.95;;;3.72;;
36797;SDS011;22748;8.426;99.512;2022-11-25T10:56:58;8.43;;;3.42;;
36797;SDS011;22748;8.426;99.512;2022-11-25T10:59:31;9.32;;;3.70;;
36797;SDS011;22748;8.426;99.512;2022-11-25T11:02:14;4.22;;;3.60;;
36797;SDS011;22748;8.426;99.512;2022-11-25T11:04:52;5.80;;;3.40;;
36797;SDS011;22748;8.426;99.512;2022-11-25T11:07:27;5.05;;;3.17;;
36797;SDS011;22748;8.426;99.512;2022-11-25T11:12:56;5.50;;;4.18;;
36797;SDS011;22748;8.426;99.512;2022-11-25T11:15:28;4.35;;;3.15;;
36797;SDS011;22748;8.426;99.512;2022-11-25T11:18:13;5.57;;;3.67;;
36797;SDS011;22748;8.426;99.512;2022-11-25T11:20:55;4.82;;;4.10;;
36797;SDS011;22748;8.426;99.512;2022-11-25T11:23:27;7.25;;;5.03;;
36797;SDS011;22748;8.426;99.512;2022-11-25T11:26:00;7.63;;;5.80;;
36797;SDS011;22748;8.426;99.512;2022-11-25T11:28:37;6.20;;;5.60;;
36797;SDS011;22748;8.426;99.512;2022-11-25T11:31:14;7.05;;;5.13;;
36797;SDS011;22748;8.426;99.512;2022-11-25T11:33:50;7.25;;;5.38;;
36797;SDS011;22748;8.426;99.512;2022-11-25T11:36:37;6.22;;;5.53;;
36797;SDS011;22748;8.426;99.512;2022-11-25T11:39:20;7.72;;;6.35;;
36797;SDS011;22748;8.426;99.512;2022-11-25T11:42:05;6.20;;;4.90;;
36797;SDS011;22748;8.426;99.512;2022-11-25T11:44:49;7.40;;;5.10;;
36797;SDS011;22748;8.426;99.512;2022-11-25T11:47:34;8.45;;;4.63;;
36797;SDS011;22748;8.426;99.512;2022-11-25T11:50:24;12.77;;;4.88;;
36797;SDS011;22748;8.426;99.512;2022-11-25T11:53:04;9.32;;;6.07;;
36797;SDS011;22748;8.426;99.512;2022-11-25T11:55:50;18.05;;;8.18;;
36797;SDS011;22748;8.426;99.512;2022-11-25T11:58:41;10.82;;;7.25;;
36797;SDS011;22748;8.426;99.512;2022-11-25T12:01:33;10.35;;;6.75;;
36797;SDS011;22748;8.426;99.512;2022-11-25T12:04:14;7.47;;;6.25;;
36797;SDS011;22748;8.426;99.512;2022-11-25T12:06:55;6.97;;;5.35;;
36797;SDS011;22748;8.426;99.512;2022-11-25T12:09:34;9.55;;;5.60;;
36797;SDS011;22748;8.426;99.512;2022-11-25T12:12:12;7.30;;;4.97;;
36797;SDS011;22748;8.426;99.512;2022-11-25T12:14:45;6.03;;;4.93;;
36797;SDS011;22748;8.426;99.512;2022-11-25T12:17:19;5.63;;;5.10;;
36797;SDS011;22748;8.426;99.512;2022-11-25T12:19:57;8.07;;;5.35;;
36797;SDS011;22748;8.426;99.512;2022-11-25T12:22:37;5.77;;;4.67;;
36797;SDS011;22748;8.426;99.512;2022-11-25T12:25:18;7.22;;;4.80;;
36797;SDS011;22748;8.426;99.512;2022-11-25T12:27:53;6.30;;;4.47;;
36797;SDS011;22748;8.426;99.512;2022-11-25T12:30:29;4.70;;;4.20;;
36797;SDS011;22748;8.426;99.512;2022-11-25T12:33:08;8.60;;;4.18;;
36797;SDS011;22748;8.426;99.512;2022-11-25T12:35:47;6.47;;;4.50;;
36797;SDS011;22748;8.426;99.512;2022-11-25T12:38:31;8.18;;;6.95;;
36797;SDS011;22748;8.426;99.512;2022-11-25T12:41:11;7.50;;;6.22;;
36797;SDS011;22748;8.426;99.512;2022-11-25T12:43:53;7.45;;;6.43;;
36797;SDS011;22748;8.426;99.512;2022-11-25T12:46:34;6.00;;;5.40;;
36797;SDS011;22748;8.426;99.512;2022-11-25T12:49:11;6.60;;;5.32;;
36797;SDS011;22748;8.426;99.512;2022-11-25T12:54:46;20.40;;;14.65;;
36797;SDS011;22748;8.426;99.512;2022-11-25T13:00:42;15.60;;;9.07;;
36797;SDS011;22748;8.426;99.512;2022-11-25T13:03:39;12.25;;;7.32;;
36797;SDS011;22748;8.426;99.512;2022-11-25T13:06:41;9.68;;;6.53;;
36797;SDS011;22748;8.426;99.512;2022-11-25T13:09:34;11.75;;;6.75;;
36797;SDS011;22748;8.426;99.512;2022-11-25T13:12:25;12.07;;;6.13;;
36797;SDS011;22748;8.426;99.512;2022-11-25T13:17:54;9.70;;;6.95;;
36797;SDS011;22748;8.426;99.512;2022-11-25T13:20:35;12.27;;;8.55;;
36797;SDS011;22748;8.426;99.512;2022-11-25T13:32:22;7.22;;;6.10;;
36797;SDS011;22748;8.426;99.512;2022-11-25T13:37:55;11.07;;;6.70;;
36797;SDS011;22748;8.426;99.512;2022-11-25T13:40:33;10.68;;;6.45;;
36797;SDS011;22748;8.426;99.512;2022-11-25T13:43:18;13.00;;;6.95;;
36797;SDS011;22748;8.426;99.512;2022-11-25T13:45:50;9.55;;;6.95;;
36797;SDS011;22748;8.426;99.512;2022-11-25T13:48:23;10.40;;;7.18;;
36797;SDS011;22748;8.426;99.512;2022-11-25T13:53:49;10.25;;;7.20;;
36797;SDS011;22748;8.426;99.512;2022-11-25T13:56:25;12.85;;;7.22;;
36797;SDS011;22748;8.426;99.512;2022-11-25T14:01:52;9.27;;;6.13;;
36797;SDS011;22748;8.426;99.512;2022-11-25T14:04:31;8.15;;;5.97;;
36797;SDS011;22748;8.426;99.512;2022-11-25T14:07:16;8.15;;;6.13;;
36797;SDS011;22748;8.426;99.512;2022-11-25T14:09:59;8.35;;;6.15;;
36797;SDS011;22748;8.426;99.512;2022-11-25T14:12:54;12.57;;;6.45;;
36797;SDS011;22748;8.426;99.512;2022-11-25T14:15:37;9.38;;;6.70;;
36797;SDS011;22748;8.426;99.512;2022-11-25T14:21:23;8.70;;;7.22;;
36797;SDS011;22748;8.426;99.512;2022-11-25T14:24:15;10.88;;;6.43;;
36797;SDS011;22748;8.426;99.512;2022-11-25T14:27:00;12.90;;;6.63;;
36797;SDS011;22748;8.426;99.512;2022-11-25T14:29:36;10.02;;;7.05;;
36797;SDS011;22748;8.426;99.512;2022-11-25T14:32:13;9.07;;;6.60;;
36797;SDS011;22748;8.426;99.512;2022-11-25T14:34:53;10.10;;;7.10;;
36797;SDS011;22748;8.426;99.512;2022-11-25T14:37:38;15.90;;;7.22;;
36797;SDS011;22748;8.426;99.512;2022-11-25T14:40:14;10.02;;;7.55;;
36797;SDS011;22748;8.426;99.512;2022-11-25T14:42:49;9.93;;;8.07;;
36797;SDS011;22748;8.426;99.512;2022-11-25T14:45:26;20.05;;;16.73;;
36797;SDS011;22748;8.426;99.512;2022-11-25T14:48:11;36.60;;;30.95;;
36797;SDS011;22748;8.426;99.512;2022-11-25T14:50:57;70.35;;;50.08;;
36797;SDS011;22748;8.426;99.512;2022-11-25T14:53:30;64.40;;;47.15;;
36797;SDS011;22748;8.426;99.512;2022-11-25T14:56:11;38.45;;;28.08;;
36797;SDS011;22748;8.426;99.512;2022-11-25T14:58:45;36.63;;;25.65;;
36797;SDS011;22748;8.426;99.512;2022-11-25T15:01:17;31.38;;;21.98;;
36797;SDS011;22748;8.426;99.512;2022-11-25T15:03:51;21.38;;;15.45;;
36797;SDS011;22748;8.426;99.512;2022-11-25T15:06:35;19.38;;;14.38;;
36797;SDS011;22748;8.426;99.512;2022-11-25T15:09:16;25.10;;;17.38;;
36797;SDS011;22748;8.426;99.512;2022-11-25T15:11:50;24.90;;;18.52;;
36797;SDS011;22748;8.426;99.512;2022-11-25T15:14:25;37.58;;;24.13;;
36797;SDS011;22748;8.426;99.512;2022-11-25T15:16:58;46.10;;;26.30;;
36797;SDS011;22748;8.426;99.512;2022-11-25T15:19:35;50.13;;;30.13;;
36797;SDS011;22748;8.426;99.512;2022-11-25T15:22:10;41.70;;;28.05;;
36797;SDS011;22748;8.426;99.512;2022-11-25T15:24:46;32.08;;;21.17;;
36797;SDS011;22748;8.426;99.512;2022-11-25T15:27:18;28.52;;;18.70;;
36797;SDS011;22748;8.426;99.512;2022-11-25T15:29:52;20.00;;;13.48;;
36797;SDS011;22748;8.426;99.512;2022-11-25T15:32:24;17.83;;;12.27;;
36797;SDS011;22748;8.426;99.512;2022-11-25T15:34:59;15.65;;;11.75;;
36797;SDS011;22748;8.426;99.512;2022-11-25T15:37:32;20.08;;;14.10;;
36797;SDS011;22748;8.426;99.512;2022-11-25T15:43:06;45.92;;;36.42;;
36797;SDS011;22748;8.426;99.512;2022-11-25T15:45:53;28.10;;;22.67;;
36797;SDS011;22748;8.426;99.512;2022-11-25T15:48:28;23.95;;;19.63;;
36797;SDS011;22748;8.426;99.512;2022-11-25T15:51:02;19.55;;;16.65;;
36797;SDS011;22748;8.426;99.512;2022-11-25T15:53:34;17.95;;;13.90;;
36797;SDS011;22748;8.426;99.512;2022-11-25T15:56:05;16.35;;;12.30;;
36797;SDS011;22748;8.426;99.512;2022-11-25T15:58:46;17.13;;;10.75;;
36797;SDS011;22748;8.426;99.512;2022-11-25T16:01:19;16.42;;;10.82;;
36797;SDS011;22748;8.426;99.512;2022-11-25T16:03:51;12.68;;;10.43;;
36797;SDS011;22748;8.426;99.512;2022-11-25T16:06:50;13.15;;;9.80;;
36797;SDS011;22748;8.426;99.512;2022-11-25T16:09:21;16.77;;;11.82;;
36797;SDS011;22748;8.426;99.512;2022-11-25T16:12:04;15.25;;;11.48;;
36797;SDS011;22748;8.426;99.512;2022-11-25T16:14:42;14.25;;;10.90;;
36797;SDS011;22748;8.426;99.512;2022-11-25T16:17:13;11.38;;;8.80;;